SBGR/GRU METAR and TAF weather

Enter ICAO airport designator
Station Type Date Time Source
SBGR METAR 2021/05/15 02:00 UTC NOAA

SBGR 150200Z 08006KT 9999 SCT010 BKN030 16/15 Q1022


Station Type Date Time Source
SBGR Decoded METAR 2021/05/15 02:00 UTC NOAA

Guarulhos Civ / Mil , Brazil (SBGR) 23-26S 046-28W
May 14, 2021 - 10:00 PM EDT / 2021.05.15 0200 UTC
Wind: from the E (080 degrees) at 7 MPH (6 KT):0
Visibility: greater than 7 mile(s):0
Sky conditions: mostly cloudy
Temperature: 60 F (16 C)
Dew Point: 59 F (15 C)
Relative Humidity: 93%
Pressure (altimeter): 30.18 in. Hg (1022 hPa)
ob: SBGR 150200Z 08006KT 9999 SCT010 BKN030 16/15 Q1022
cycle: 2

Station Type Date Time Source
SBGR TAF 2021/05/15 06:18 UTC NOAA

TAF TAF SBGR 150200Z 1506/1612 11005KT 8000 BKN010 TN13/1508Z TX20/1517Z
BECMG 1507/1509 BKN007
BECMG 1511/1513 08010KT BKN015
BECMG 1514/1516 BKN020
BECMG 1519/1521 14008KT BKN013
BECMG 1521/1523 14005KT
BECMG 1600/1602 13003KT FEW010 PROB30 1608/1611 0500 FG OVC005
RMK PGQ

Example: see airport list